createdAt,value
2018-02-27T00:00:43.006Z,0.00
2018-02-27T00:01:43.035Z,0.00
2018-02-27T00:02:42.949Z,0.00
2018-02-27T00:03:42.924Z,0.00
2018-02-27T00:04:42.896Z,0.00
2018-02-27T00:05:42.870Z,0.00
2018-02-27T00:06:42.850Z,0.00
2018-02-27T00:07:42.814Z,0.00
2018-02-27T00:08:42.785Z,0.00
2018-02-27T00:09:42.765Z,0.00
2018-02-27T00:10:42.734Z,0.00
2018-02-27T00:11:42.706Z,0.00
2018-02-27T00:12:42.679Z,0.00
2018-02-27T00:13:42.656Z,0.00
2018-02-27T00:14:42.622Z,0.00
2018-02-27T00:15:42.599Z,0.00
2018-02-27T00:16:42.578Z,0.00
2018-02-27T00:17:42.543Z,0.00
2018-02-27T00:18:42.518Z,0.00
2018-02-27T00:19:42.490Z,0.00
2018-02-27T00:20:42.464Z,0.00
2018-02-27T00:21:42.436Z,0.00
2018-02-27T00:22:42.408Z,0.00
2018-02-27T00:23:42.385Z,0.00
2018-02-27T00:24:42.356Z,0.00
2018-02-27T00:25:42.326Z,0.00
2018-02-27T00:26:42.303Z,0.00
2018-02-27T00:27:42.273Z,0.00
2018-02-27T00:28:42.243Z,0.00
2018-02-27T00:29:42.215Z,0.00
2018-02-27T00:30:42.193Z,0.00
2018-02-27T00:31:42.169Z,0.00
2018-02-27T00:32:42.138Z,0.00
2018-02-27T00:33:42.112Z,0.00
2018-02-27T00:34:42.086Z,0.00
2018-02-27T00:35:42.054Z,0.00
2018-02-27T00:36:42.025Z,0.00
2018-02-27T00:37:42.003Z,0.00
2018-02-27T00:38:41.980Z,0.00
2018-02-27T00:39:41.953Z,0.00
2018-02-27T00:40:41.920Z,0.00
2018-02-27T00:41:41.892Z,0.00
2018-02-27T00:42:41.867Z,0.00
2018-02-27T00:43:41.844Z,0.00
2018-02-27T00:44:41.810Z,0.00
2018-02-27T00:45:41.788Z,0.00
2018-02-27T00:46:41.756Z,0.00
2018-02-27T00:47:41.731Z,0.00
2018-02-27T00:48:41.702Z,0.00
2018-02-27T00:49:41.674Z,0.00
2018-02-27T00:50:41.650Z,0.00
2018-02-27T00:51:41.627Z,0.00
2018-02-27T00:52:41.594Z,0.00
2018-02-27T00:53:41.567Z,0.00
2018-02-27T00:54:41.541Z,0.00
2018-02-27T00:55:41.514Z,0.00
2018-02-27T00:56:41.490Z,0.00
2018-02-27T00:57:41.460Z,0.00
2018-02-27T00:58:41.439Z,0.00
2018-02-27T00:59:41.405Z,0.00
2018-02-27T01:00:41.382Z,0.00
2018-02-27T01:01:41.357Z,0.00
2018-02-27T01:02:41.323Z,0.00
2018-02-27T01:03:41.298Z,0.00
2018-02-27T01:04:41.272Z,0.00
2018-02-27T01:05:41.245Z,0.00
2018-02-27T01:06:41.221Z,0.00
2018-02-27T01:07:41.190Z,0.00
2018-02-27T01:08:41.160Z,0.00
2018-02-27T01:09:41.135Z,0.00
2018-02-27T01:10:41.109Z,0.00
2018-02-27T01:11:41.081Z,0.00
2018-02-27T01:12:41.053Z,0.00
2018-02-27T01:13:41.027Z,0.00
2018-02-27T01:14:41.009Z,0.00
2018-02-27T01:15:40.976Z,0.00
2018-02-27T01:16:40.946Z,0.00
2018-02-27T01:17:40.923Z,0.00
2018-02-27T01:18:40.893Z,0.00
2018-02-27T01:19:40.866Z,0.00
2018-02-27T01:20:40.838Z,0.00
2018-02-27T01:21:40.818Z,0.00
2018-02-27T01:22:40.787Z,0.00
2018-02-27T01:23:40.757Z,0.00
2018-02-27T01:24:40.735Z,0.00
2018-02-27T01:25:40.702Z,0.00
2018-02-27T01:26:40.682Z,0.00
2018-02-27T01:27:40.654Z,0.00
2018-02-27T01:28:40.622Z,0.00
2018-02-27T01:29:40.597Z,0.00
2018-02-27T01:30:40.575Z,0.00
2018-02-27T01:31:40.541Z,0.00
2018-02-27T01:32:40.516Z,0.00
2018-02-27T01:33:40.488Z,0.00
2018-02-27T01:34:40.468Z,0.00
2018-02-27T01:35:40.434Z,0.00
2018-02-27T01:36:40.407Z,0.00
2018-02-27T01:37:40.380Z,0.00
2018-02-27T01:38:40.352Z,0.00
2018-02-27T01:39:40.327Z,0.00
2018-02-27T01:40:40.295Z,0.00
2018-02-27T01:41:40.275Z,0.00
2018-02-27T01:42:40.249Z,0.00
2018-02-27T01:43:40.222Z,0.00
2018-02-27T01:44:40.193Z,0.00
2018-02-27T01:45:40.161Z,0.00
2018-02-27T01:46:40.137Z,0.00
2018-02-27T01:47:40.107Z,0.00
2018-02-27T01:48:40.082Z,0.00
2018-02-27T01:49:40.053Z,0.00
2018-02-27T01:50:40.028Z,0.00
2018-02-27T01:51:40.002Z,0.00
2018-02-27T01:52:39.981Z,0.00
2018-02-27T01:53:39.946Z,0.00
2018-02-27T01:54:39.917Z,0.00
2018-02-27T01:55:39.890Z,0.00
2018-02-27T01:56:39.865Z,0.00
2018-02-27T01:57:39.837Z,0.00
2018-02-27T01:58:39.810Z,0.00
2018-02-27T01:59:39.783Z,0.00
2018-02-27T02:00:39.755Z,0.00
2018-02-27T02:01:39.731Z,0.00
2018-02-27T02:02:39.699Z,0.00
2018-02-27T02:03:39.676Z,0.00
2018-02-27T02:04:39.646Z,0.00
2018-02-27T02:05:39.621Z,0.00
2018-02-27T02:06:39.595Z,0.00
2018-02-27T02:07:39.562Z,0.00
2018-02-27T02:08:39.538Z,0.00
2018-02-27T02:09:39.514Z,0.00
2018-02-27T02:10:39.483Z,0.00
2018-02-27T02:11:39.457Z,0.00
2018-02-27T02:12:39.439Z,0.00
2018-02-27T02:13:39.402Z,0.00
2018-02-27T02:14:39.377Z,0.00
2018-02-27T02:15:39.346Z,0.00
2018-02-27T02:16:39.325Z,0.00
2018-02-27T02:17:39.292Z,0.00
2018-02-27T02:18:39.269Z,0.00
2018-02-27T02:19:39.247Z,0.00
2018-02-27T02:20:39.221Z,0.00
2018-02-27T02:21:39.187Z,0.00
2018-02-27T02:22:39.160Z,0.00
2018-02-27T02:23:39.133Z,0.00
2018-02-27T02:24:39.107Z,0.00
2018-02-27T02:25:39.077Z,0.00
2018-02-27T02:26:39.050Z,0.00
2018-02-27T02:27:39.025Z,0.00
2018-02-27T02:28:39.007Z,0.00
2018-02-27T02:29:38.974Z,0.00
2018-02-27T02:30:38.953Z,0.00
2018-02-27T02:31:38.919Z,0.00
2018-02-27T02:32:38.888Z,0.00
2018-02-27T02:33:38.864Z,0.00
2018-02-27T02:34:38.837Z,0.00
2018-02-27T02:35:38.808Z,0.00
2018-02-27T02:36:38.782Z,0.00
2018-02-27T02:37:38.768Z,0.00
2018-02-27T02:38:38.728Z,0.00
2018-02-27T02:39:38.721Z,0.00
2018-02-27T02:40:38.673Z,0.00
2018-02-27T02:41:38.652Z,0.00
2018-02-27T02:42:38.622Z,0.00
2018-02-27T02:43:38.591Z,0.00
2018-02-27T02:44:38.566Z,0.00
2018-02-27T02:45:38.537Z,0.00
2018-02-27T02:46:38.513Z,0.00
2018-02-27T02:47:38.482Z,0.00
2018-02-27T02:48:38.454Z,0.00
2018-02-27T02:49:38.428Z,0.00
2018-02-27T02:50:38.400Z,0.00
2018-02-27T02:51:38.376Z,0.00
2018-02-27T02:52:38.347Z,0.00
2018-02-27T02:53:38.318Z,0.00
2018-02-27T02:54:38.295Z,0.00
2018-02-27T02:55:38.271Z,0.00
2018-02-27T02:56:38.238Z,0.00
2018-02-27T02:57:38.217Z,0.00
2018-02-27T02:58:38.185Z,0.00
2018-02-27T02:59:38.158Z,0.00
2018-02-27T03:00:38.129Z,0.00
2018-02-27T03:01:38.109Z,0.00
2018-02-27T03:02:38.074Z,0.00
2018-02-27T03:03:38.048Z,0.00
2018-02-27T03:04:38.018Z,0.00
2018-02-27T03:05:37.994Z,0.00
2018-02-27T03:06:37.968Z,0.00
2018-02-27T03:07:37.938Z,0.00
2018-02-27T03:08:37.914Z,0.00
2018-02-27T03:09:37.889Z,0.00
2018-02-27T03:10:37.862Z,0.00
2018-02-27T03:11:37.828Z,0.00
2018-02-27T03:12:37.811Z,0.00
2018-02-27T03:13:37.774Z,0.00
2018-02-27T03:14:37.747Z,0.00
2018-02-27T03:15:37.728Z,0.00
2018-02-27T03:16:37.690Z,0.00
2018-02-27T03:17:37.668Z,0.00
2018-02-27T03:18:37.643Z,0.00
2018-02-27T03:19:37.612Z,0.00
2018-02-27T03:20:37.583Z,0.00
2018-02-27T03:21:37.558Z,0.00
2018-02-27T03:22:37.535Z,0.00
2018-02-27T03:23:37.503Z,0.00
2018-02-27T03:24:37.477Z,0.00
2018-02-27T03:25:37.452Z,0.00
2018-02-27T03:26:37.418Z,0.00
2018-02-27T03:27:37.396Z,0.00
2018-02-27T03:28:37.365Z,0.00
2018-02-27T03:29:37.336Z,0.00
2018-02-27T03:30:37.322Z,0.00
2018-02-27T03:31:37.283Z,0.00
2018-02-27T03:32:37.265Z,0.00
2018-02-27T03:33:37.227Z,0.00
2018-02-27T03:34:37.209Z,0.00
2018-02-27T03:35:37.172Z,0.00
2018-02-27T03:36:37.151Z,0.00
2018-02-27T03:37:37.117Z,0.00
2018-02-27T03:38:37.091Z,0.00
2018-02-27T03:39:37.065Z,0.00
2018-02-27T03:40:37.039Z,0.00
2018-02-27T03:41:37.007Z,0.00
2018-02-27T03:42:36.982Z,0.00
2018-02-27T03:43:36.957Z,0.00
2018-02-27T03:44:36.927Z,0.00
2018-02-27T03:45:36.903Z,0.00
2018-02-27T03:46:36.872Z,0.00
2018-02-27T03:47:36.852Z,0.00
2018-02-27T03:48:36.816Z,0.00
2018-02-27T03:49:36.789Z,0.00
2018-02-27T03:50:36.760Z,0.00
2018-02-27T03:51:36.732Z,0.00
2018-02-27T03:52:36.704Z,0.00
2018-02-27T03:53:36.678Z,0.00
2018-02-27T03:54:36.648Z,0.00
2018-02-27T03:55:36.623Z,0.00
2018-02-27T03:56:36.598Z,0.00
2018-02-27T03:57:36.568Z,0.00
2018-02-27T03:58:36.544Z,0.00
2018-02-27T03:59:36.512Z,0.00
2018-02-27T04:00:36.493Z,0.00
2018-02-27T04:01:36.457Z,0.00
2018-02-27T04:02:36.432Z,0.00
2018-02-27T04:03:36.407Z,0.00
2018-02-27T04:04:36.377Z,0.00
2018-02-27T04:05:36.349Z,0.00
2018-02-27T04:06:36.319Z,0.00
2018-02-27T04:07:36.291Z,0.00
2018-02-27T04:08:36.262Z,0.00
2018-02-27T04:09:36.238Z,0.00
2018-02-27T04:10:36.207Z,0.00
2018-02-27T04:11:36.186Z,0.00
2018-02-27T04:12:36.154Z,0.00
2018-02-27T04:13:36.128Z,0.00
2018-02-27T04:14:36.097Z,0.00
2018-02-27T04:15:36.072Z,0.00
2018-02-27T04:16:36.043Z,0.00
2018-02-27T04:17:36.017Z,0.00
2018-02-27T04:18:35.988Z,0.00
2018-02-27T04:19:35.963Z,0.00
2018-02-27T04:20:35.930Z,0.00
2018-02-27T04:21:35.906Z,0.00
2018-02-27T04:22:35.877Z,0.00
2018-02-27T04:23:35.854Z,0.00
2018-02-27T04:24:35.823Z,0.00
2018-02-27T04:25:35.797Z,0.00
2018-02-27T04:26:35.767Z,0.00
2018-02-27T04:27:35.740Z,0.00
2018-02-27T04:28:35.713Z,0.00
2018-02-27T04:29:35.687Z,0.00
2018-02-27T04:30:35.658Z,0.00
2018-02-27T04:31:35.636Z,0.00
2018-02-27T04:32:35.604Z,0.00
2018-02-27T04:33:35.579Z,0.00
2018-02-27T04:34:35.556Z,0.00
2018-02-27T04:35:35.528Z,0.00
2018-02-27T04:36:35.501Z,0.00
2018-02-27T04:37:35.472Z,0.00
2018-02-27T04:38:35.446Z,0.00
2018-02-27T04:39:35.416Z,0.00
2018-02-27T04:40:35.384Z,0.00
2018-02-27T04:41:35.357Z,0.00
2018-02-27T04:42:35.334Z,0.00
2018-02-27T04:43:35.306Z,0.00
2018-02-27T04:44:35.280Z,0.00
2018-02-27T04:45:35.246Z,0.00
2018-02-27T04:46:35.221Z,0.00
2018-02-27T04:47:35.198Z,0.00
2018-02-27T04:48:35.167Z,0.00
2018-02-27T04:49:35.138Z,0.00
2018-02-27T04:50:35.118Z,0.00
2018-02-27T04:51:35.086Z,0.00
2018-02-27T04:52:35.061Z,0.00
2018-02-27T04:53:35.030Z,0.00
2018-02-27T04:54:35.007Z,0.00
2018-02-27T04:55:34.976Z,0.00
2018-02-27T04:56:34.951Z,0.00
2018-02-27T04:57:34.918Z,0.00
2018-02-27T04:58:34.895Z,0.00
2018-02-27T04:59:34.868Z,0.00
2018-02-27T05:00:34.842Z,0.00
2018-02-27T05:01:34.814Z,0.00
2018-02-27T05:02:34.783Z,0.00
2018-02-27T05:03:34.760Z,0.00
2018-02-27T05:04:34.728Z,0.00
2018-02-27T05:05:34.701Z,0.00
2018-02-27T05:06:34.678Z,0.00
2018-02-27T05:07:34.648Z,0.00
2018-02-27T05:08:34.624Z,0.00
2018-02-27T05:09:34.592Z,0.00
2018-02-27T05:10:34.570Z,0.00
2018-02-27T05:11:34.540Z,0.00
2018-02-27T05:12:34.512Z,0.00
2018-02-27T05:13:34.483Z,0.00
2018-02-27T05:14:34.462Z,0.00
2018-02-27T05:15:34.432Z,0.00
2018-02-27T05:16:34.402Z,0.00
2018-02-27T05:17:34.375Z,0.00
2018-02-27T05:18:34.369Z,0.00
2018-02-27T05:19:34.322Z,0.00
2018-02-27T05:20:34.298Z,0.00
2018-02-27T05:21:34.266Z,0.00
2018-02-27T05:22:34.236Z,0.00
2018-02-27T05:23:34.209Z,0.00
2018-02-27T05:24:34.186Z,0.00
2018-02-27T05:25:34.157Z,0.00
2018-02-27T05:26:34.126Z,0.00
2018-02-27T05:27:34.107Z,0.00
2018-02-27T05:28:34.074Z,0.00
2018-02-27T05:29:34.047Z,0.00
2018-02-27T05:30:34.039Z,0.00
2018-02-27T05:31:33.995Z,0.00
2018-02-27T05:32:33.963Z,0.00
2018-02-27T05:33:33.934Z,0.00
2018-02-27T05:34:33.909Z,0.00
2018-02-27T05:35:33.884Z,0.00
2018-02-27T05:36:33.853Z,0.00
2018-02-27T05:37:33.827Z,0.00
2018-02-27T05:38:33.798Z,0.00
2018-02-27T05:39:33.772Z,0.00
2018-02-27T05:40:33.744Z,0.00
2018-02-27T05:41:33.718Z,0.00
2018-02-27T05:42:33.720Z,0.00
2018-02-27T05:43:33.660Z,0.00
2018-02-27T05:44:33.639Z,0.00
2018-02-27T05:45:33.605Z,0.00
2018-02-27T05:46:33.588Z,0.00
2018-02-27T05:47:33.558Z,0.00
2018-02-27T05:48:33.529Z,0.00
2018-02-27T05:49:33.500Z,0.00
2018-02-27T05:50:33.468Z,0.00
2018-02-27T05:51:33.445Z,0.00
2018-02-27T05:52:33.415Z,0.00
2018-02-27T05:53:33.387Z,0.00
2018-02-27T05:54:33.360Z,0.00
2018-02-27T05:55:33.334Z,0.00
2018-02-27T05:56:33.303Z,0.00
2018-02-27T05:57:33.279Z,0.00
2018-02-27T05:58:33.248Z,0.00
2018-02-27T05:59:33.223Z,0.00
2018-02-27T06:00:33.191Z,0.00
2018-02-27T06:01:33.168Z,0.00
2018-02-27T06:02:33.139Z,0.00
2018-02-27T06:03:33.109Z,0.00
2018-02-27T06:04:33.082Z,0.00
2018-02-27T06:05:33.055Z,0.00
2018-02-27T06:06:33.032Z,0.00
2018-02-27T06:07:33.004Z,0.00
2018-02-27T06:08:32.989Z,0.00
2018-02-27T06:09:32.951Z,0.00
2018-02-27T06:10:32.918Z,0.00
2018-02-27T06:11:32.896Z,0.00
2018-02-27T06:12:32.866Z,0.00
2018-02-27T06:13:32.840Z,0.00
2018-02-27T06:14:32.811Z,0.00
2018-02-27T06:15:32.785Z,0.00
2018-02-27T06:16:32.753Z,0.00
2018-02-27T06:17:32.727Z,0.00
2018-02-27T06:18:32.697Z,0.00
2018-02-27T06:19:32.668Z,0.00
2018-02-27T06:20:32.641Z,0.00
2018-02-27T06:21:32.613Z,0.00
2018-02-27T06:22:32.586Z,0.00
2018-02-27T06:23:32.558Z,0.00
2018-02-27T06:24:32.527Z,0.00
2018-02-27T06:25:32.501Z,0.00
2018-02-27T06:26:32.476Z,0.00
2018-02-27T06:27:32.450Z,0.00
2018-02-27T06:28:32.422Z,0.00
2018-02-27T06:29:32.387Z,0.00
2018-02-27T06:30:32.368Z,0.00
2018-02-27T06:31:32.338Z,0.00
2018-02-27T06:32:32.307Z,0.00
2018-02-27T06:33:32.278Z,0.00
2018-02-27T06:34:32.254Z,0.00
2018-02-27T06:35:32.227Z,0.00
2018-02-27T06:36:32.196Z,0.00
2018-02-27T06:37:32.166Z,0.00
2018-02-27T06:38:32.137Z,0.00
2018-02-27T06:39:32.119Z,0.00
2018-02-27T06:40:32.090Z,0.00
2018-02-27T06:41:32.058Z,0.00
2018-02-27T06:42:32.032Z,0.00
2018-02-27T06:43:31.999Z,0.00
2018-02-27T06:44:31.978Z,0.00
2018-02-27T06:45:31.949Z,0.00
2018-02-27T06:46:31.917Z,0.00
2018-02-27T06:47:31.892Z,0.00
2018-02-27T06:48:31.861Z,0.00
2018-02-27T06:49:31.838Z,0.00
2018-02-27T06:50:31.806Z,0.00
2018-02-27T06:51:31.782Z,0.00
2018-02-27T06:52:31.745Z,0.00
2018-02-27T06:53:31.719Z,0.00
2018-02-27T06:54:31.694Z,0.00
2018-02-27T06:55:31.662Z,0.00
2018-02-27T06:56:31.635Z,0.00
2018-02-27T06:57:31.605Z,0.00
2018-02-27T06:58:31.584Z,0.00
2018-02-27T06:59:31.558Z,0.00
2018-02-27T07:00:31.522Z,0.00
2018-02-27T07:01:31.499Z,0.00
2018-02-27T07:02:31.468Z,0.00
2018-02-27T07:03:31.439Z,0.00
2018-02-27T07:04:31.415Z,0.00
2018-02-27T07:05:31.385Z,0.00
2018-02-27T07:06:31.362Z,0.00
2018-02-27T07:07:31.328Z,0.00
2018-02-27T07:08:31.305Z,0.00
2018-02-27T07:09:31.270Z,0.00
2018-02-27T07:10:31.247Z,0.00
2018-02-27T07:11:31.272Z,5.63
2018-02-27T07:12:31.188Z,5.63
2018-02-27T07:13:31.157Z,5.63
2018-02-27T07:14:31.131Z,5.63
2018-02-27T07:15:31.104Z,5.63
2018-02-27T07:16:31.077Z,5.63
2018-02-27T07:17:31.048Z,5.63
2018-02-27T07:18:31.078Z,5.63
2018-02-27T07:19:30.993Z,5.63
2018-02-27T07:20:30.968Z,5.63
2018-02-27T07:21:30.945Z,5.63
2018-02-27T07:22:30.907Z,5.63
2018-02-27T07:23:30.884Z,5.63
2018-02-27T07:24:30.851Z,5.63
2018-02-27T07:25:30.826Z,5.63
2018-02-27T07:26:30.796Z,5.63
2018-02-27T07:27:30.766Z,5.63
2018-02-27T07:28:30.738Z,5.63
2018-02-27T07:29:30.718Z,5.63
2018-02-27T07:30:30.682Z,5.63
2018-02-27T07:31:30.660Z,5.63
2018-02-27T07:32:30.631Z,5.63
2018-02-27T07:33:30.599Z,5.63
2018-02-27T07:34:30.571Z,5.63
2018-02-27T07:35:30.550Z,5.63
2018-02-27T07:36:30.516Z,5.63
2018-02-27T07:37:30.490Z,5.63
2018-02-27T07:38:30.464Z,5.63
2018-02-27T07:39:30.440Z,5.63
2018-02-27T07:40:30.409Z,5.63
2018-02-27T07:41:30.377Z,5.63
2018-02-27T07:42:30.350Z,5.63
2018-02-27T07:43:30.321Z,5.63
2018-02-27T07:44:30.302Z,5.63
2018-02-27T07:45:30.268Z,5.63
2018-02-27T07:46:30.237Z,5.63
2018-02-27T07:47:30.217Z,5.63
2018-02-27T07:48:30.237Z,5.63
2018-02-27T07:49:30.160Z,5.63
2018-02-27T07:50:30.126Z,11.25
2018-02-27T07:51:30.105Z,11.25
2018-02-27T07:52:30.080Z,11.25
2018-02-27T07:53:30.044Z,11.25
2018-02-27T07:54:30.022Z,5.63
2018-02-27T07:55:29.987Z,5.63
2018-02-27T07:56:29.967Z,5.63
2018-02-27T07:57:29.932Z,5.63
2018-02-27T07:58:29.907Z,5.63
2018-02-27T07:59:29.877Z,11.25
2018-02-27T08:00:29.854Z,11.25
2018-02-27T08:01:29.822Z,16.88
2018-02-27T08:02:29.798Z,16.88
2018-02-27T08:03:29.766Z,11.25
2018-02-27T08:04:29.742Z,11.25
2018-02-27T08:05:29.718Z,16.88
2018-02-27T08:06:29.685Z,16.88
2018-02-27T08:07:29.662Z,16.88
2018-02-27T08:08:29.631Z,16.88
2018-02-27T08:09:29.606Z,16.88
2018-02-27T08:10:29.576Z,16.88
2018-02-27T08:11:29.548Z,16.88
2018-02-27T08:12:29.520Z,16.88
2018-02-27T08:13:29.497Z,16.88
2018-02-27T08:14:29.467Z,16.88
2018-02-27T08:15:29.442Z,16.88
2018-02-27T08:16:29.416Z,16.88
2018-02-27T08:17:29.385Z,16.88
2018-02-27T08:18:29.359Z,11.25
2018-02-27T08:19:29.329Z,11.25
2018-02-27T08:20:29.313Z,11.25
2018-02-27T08:21:29.274Z,11.25
2018-02-27T08:22:29.250Z,16.88
2018-02-27T08:23:29.217Z,11.25
2018-02-27T08:24:29.186Z,11.25
2018-02-27T08:25:29.160Z,11.25
2018-02-27T08:26:29.137Z,16.88
2018-02-27T08:27:29.108Z,11.25
2018-02-27T08:28:29.079Z,11.25
2018-02-27T08:29:29.063Z,11.25
2018-02-27T08:30:29.025Z,11.25
2018-02-27T08:31:28.997Z,11.25
2018-02-27T08:32:28.968Z,11.25
2018-02-27T08:33:28.940Z,11.25
2018-02-27T08:34:28.914Z,11.25
2018-02-27T08:35:28.886Z,16.88
2018-02-27T08:36:28.866Z,16.88
2018-02-27T08:37:28.833Z,16.88
2018-02-27T08:38:28.807Z,16.88
2018-02-27T08:39:28.776Z,16.88
2018-02-27T08:40:28.759Z,16.88
2018-02-27T08:41:28.722Z,16.88
2018-02-27T08:42:28.696Z,11.25
2018-02-27T08:43:28.665Z,16.88
2018-02-27T08:44:28.637Z,16.88
2018-02-27T08:45:28.611Z,16.88
2018-02-27T08:46:28.587Z,16.88
2018-02-27T08:47:28.566Z,16.88
2018-02-27T08:48:28.527Z,16.88
2018-02-27T08:49:28.502Z,11.25
2018-02-27T08:50:28.475Z,16.88
2018-02-27T08:51:28.449Z,16.88
2018-02-27T08:52:28.423Z,16.88
2018-02-27T08:53:28.396Z,16.88
2018-02-27T08:54:28.366Z,16.88
2018-02-27T08:55:28.338Z,16.88
2018-02-27T08:56:28.311Z,16.88
2018-02-27T08:57:28.285Z,16.88
2018-02-27T08:58:28.256Z,16.88
2018-02-27T08:59:28.226Z,16.88
2018-02-27T09:00:28.208Z,16.88
2018-02-27T09:01:28.173Z,16.88
2018-02-27T09:02:28.159Z,16.88
2018-02-27T09:03:28.125Z,16.88
2018-02-27T09:04:28.098Z,16.88
2018-02-27T09:05:28.068Z,16.88
2018-02-27T09:06:28.044Z,16.88
2018-02-27T09:07:28.008Z,16.88
2018-02-27T09:08:27.982Z,16.88
2018-02-27T09:09:27.958Z,16.88
2018-02-27T09:10:27.927Z,16.88
2018-02-27T09:11:27.901Z,16.88
2018-02-27T09:12:27.875Z,16.88
2018-02-27T09:13:27.845Z,16.88
2018-02-27T09:14:27.816Z,16.88
2018-02-27T09:15:27.797Z,16.88
2018-02-27T09:16:27.768Z,16.88
2018-02-27T09:17:27.733Z,16.88
2018-02-27T09:18:27.705Z,22.50
2018-02-27T09:19:27.687Z,22.50
2018-02-27T09:20:27.683Z,22.50
2018-02-27T09:21:27.635Z,22.50
2018-02-27T09:22:27.597Z,16.88
2018-02-27T09:23:27.573Z,16.88
2018-02-27T09:24:27.543Z,16.88
2018-02-27T09:25:27.519Z,28.13
2018-02-27T09:26:27.500Z,22.50
2018-02-27T09:27:27.464Z,28.13
2018-02-27T09:28:27.440Z,28.13
2018-02-27T09:29:27.409Z,22.50
2018-02-27T09:30:27.382Z,11.25
2018-02-27T09:31:27.351Z,28.13
2018-02-27T09:32:27.326Z,28.13
2018-02-27T09:33:27.362Z,28.13
2018-02-27T09:34:27.273Z,28.13
2018-02-27T09:35:27.244Z,22.50
2018-02-27T09:36:27.215Z,28.13
2018-02-27T09:37:27.193Z,28.13
2018-02-27T09:38:27.185Z,28.13
2018-02-27T09:39:27.136Z,28.13
2018-02-27T09:40:27.107Z,22.50
2018-02-27T09:41:27.082Z,16.88
2018-02-27T09:42:27.061Z,16.88
2018-02-27T09:43:27.026Z,22.50
2018-02-27T09:44:27.014Z,33.75
2018-02-27T09:45:26.978Z,33.75
2018-02-27T09:46:26.943Z,22.50
2018-02-27T09:47:26.947Z,28.13
2018-02-27T09:48:26.888Z,22.50
2018-02-27T09:49:26.864Z,28.13
2018-02-27T09:50:26.833Z,33.75
2018-02-27T09:51:26.805Z,28.13
2018-02-27T09:52:26.780Z,33.75
2018-02-27T09:53:26.758Z,39.38
2018-02-27T09:54:26.725Z,50.63
2018-02-27T09:55:26.701Z,50.63
2018-02-27T09:56:26.727Z,28.13
2018-02-27T09:57:26.646Z,22.50
2018-02-27T09:58:26.616Z,39.38
2018-02-27T09:59:26.594Z,28.13
2018-02-27T10:00:26.562Z,22.50
2018-02-27T10:01:26.546Z,22.50
2018-02-27T10:02:26.509Z,22.50
2018-02-27T10:03:26.486Z,22.50
2018-02-27T10:04:26.459Z,22.50
2018-02-27T10:05:26.426Z,22.50
2018-02-27T10:06:26.402Z,22.50
2018-02-27T10:07:26.378Z,22.50
2018-02-27T10:08:26.346Z,22.50
2018-02-27T10:09:26.323Z,22.50
2018-02-27T10:10:26.296Z,22.50
2018-02-27T10:11:26.265Z,39.38
2018-02-27T10:12:26.246Z,39.38
2018-02-27T10:13:26.214Z,50.63
2018-02-27T10:14:26.187Z,33.75
2018-02-27T10:15:26.159Z,28.13
2018-02-27T10:16:26.143Z,39.38
2018-02-27T10:17:26.111Z,33.75
2018-02-27T10:18:26.083Z,28.13
2018-02-27T10:19:26.059Z,28.13
2018-02-27T10:20:26.027Z,22.50
2018-02-27T10:21:26.001Z,28.13
2018-02-27T10:22:25.973Z,28.13
2018-02-27T10:23:25.948Z,28.13
2018-02-27T10:24:25.921Z,22.50
2018-02-27T10:25:25.897Z,22.50
2018-02-27T10:26:25.867Z,22.50
2018-02-27T10:27:25.854Z,22.50
2018-02-27T10:28:25.834Z,22.50
2018-02-27T10:29:25.789Z,22.50
2018-02-27T10:30:25.765Z,22.50
2018-02-27T10:31:25.737Z,22.50
2018-02-27T10:32:25.717Z,28.13
2018-02-27T10:33:25.688Z,33.75
2018-02-27T10:34:25.659Z,28.13
2018-02-27T10:35:25.629Z,28.13
2018-02-27T10:36:25.605Z,28.13
2018-02-27T10:37:25.572Z,28.13
2018-02-27T10:38:25.557Z,22.50
2018-02-27T10:39:25.523Z,22.50
2018-02-27T10:40:25.493Z,16.88
2018-02-27T10:41:25.468Z,16.88
2018-02-27T10:42:25.435Z,22.50
2018-02-27T10:43:25.414Z,22.50
2018-02-27T10:44:25.385Z,22.50
2018-02-27T10:45:25.356Z,22.50
2018-02-27T10:46:25.350Z,22.50
2018-02-27T10:47:25.314Z,28.13
2018-02-27T10:48:25.280Z,39.38
2018-02-27T10:49:25.259Z,22.50
2018-02-27T10:50:25.228Z,22.50
2018-02-27T10:51:25.209Z,16.88
2018-02-27T10:52:25.174Z,16.88
2018-02-27T10:53:25.145Z,16.88
2018-02-27T10:54:25.117Z,16.88
2018-02-27T10:55:25.095Z,16.88
2018-02-27T10:56:25.066Z,16.88
2018-02-27T10:57:25.039Z,16.88
2018-02-27T10:58:25.015Z,16.88
2018-02-27T10:59:24.997Z,22.50
2018-02-27T11:00:24.958Z,28.13
2018-02-27T11:01:24.937Z,22.50
2018-02-27T11:02:24.919Z,22.50
2018-02-27T11:03:24.880Z,22.50
2018-02-27T11:04:24.855Z,22.50
2018-02-27T11:05:24.829Z,22.50
2018-02-27T11:06:24.802Z,22.50
2018-02-27T11:07:24.806Z,22.50
2018-02-27T11:08:24.750Z,28.13
2018-02-27T11:09:24.724Z,22.50
2018-02-27T11:10:24.697Z,22.50
2018-02-27T11:11:24.678Z,33.75
2018-02-27T11:12:24.640Z,28.13
2018-02-27T11:13:24.618Z,33.75
2018-02-27T11:14:24.592Z,28.13
2018-02-27T11:15:24.576Z,22.50
2018-02-27T11:16:24.538Z,22.50
2018-02-27T11:17:24.515Z,33.75
2018-02-27T11:18:24.487Z,33.75
2018-02-27T11:19:24.457Z,39.38
2018-02-27T11:20:24.433Z,61.88
2018-02-27T11:21:24.406Z,50.63
2018-02-27T11:22:24.383Z,33.75
2018-02-27T11:23:24.353Z,56.25
2018-02-27T11:24:24.326Z,28.13
2018-02-27T11:25:24.298Z,28.13
2018-02-27T11:26:24.274Z,33.75
2018-02-27T11:27:24.246Z,39.38
2018-02-27T11:28:24.220Z,45.00
2018-02-27T11:29:24.195Z,56.25
2018-02-27T11:30:24.172Z,50.63
2018-02-27T11:31:24.141Z,56.25
2018-02-27T11:32:24.114Z,50.63
2018-02-27T11:33:24.121Z,45.00
2018-02-27T11:34:24.066Z,61.88
2018-02-27T11:35:24.037Z,56.25
2018-02-27T11:36:24.018Z,56.25
2018-02-27T11:37:23.988Z,56.25
2018-02-27T11:38:23.967Z,45.00
2018-02-27T11:39:23.938Z,33.75
2018-02-27T11:40:23.909Z,33.75
2018-02-27T11:41:23.880Z,39.38
2018-02-27T11:42:23.857Z,39.38
2018-02-27T11:43:23.833Z,56.25
2018-02-27T11:44:23.804Z,50.63
2018-02-27T11:45:23.787Z,50.63
2018-02-27T11:46:23.760Z,39.38
2018-02-27T11:47:23.729Z,28.13
2018-02-27T11:48:23.704Z,39.38
2018-02-27T11:49:23.677Z,28.13
2018-02-27T11:50:23.655Z,22.50
2018-02-27T11:51:23.629Z,22.50
2018-02-27T11:52:23.598Z,28.13
2018-02-27T11:53:23.580Z,39.38
2018-02-27T11:54:23.549Z,28.13
2018-02-27T11:55:23.517Z,22.50
2018-02-27T11:56:23.506Z,39.38
2018-02-27T11:57:23.467Z,39.38
2018-02-27T11:58:23.441Z,39.38
2018-02-27T11:59:23.416Z,22.50
2018-02-27T12:00:23.390Z,22.50
2018-02-27T12:01:23.367Z,22.50
2018-02-27T12:02:23.381Z,22.50
2018-02-27T12:03:23.312Z,28.13
2018-02-27T12:04:23.289Z,22.50
2018-02-27T12:05:23.259Z,22.50
2018-02-27T12:06:23.232Z,28.13
2018-02-27T12:07:23.216Z,39.38
2018-02-27T12:08:23.184Z,22.50
2018-02-27T12:09:23.155Z,22.50
2018-02-27T12:10:23.128Z,39.38
2018-02-27T12:11:23.104Z,28.13
2018-02-27T12:12:23.079Z,22.50
2018-02-27T12:13:23.056Z,28.13
2018-02-27T12:14:23.024Z,50.63
2018-02-27T12:15:22.996Z,33.75
2018-02-27T12:16:22.989Z,39.38
2018-02-27T12:17:22.949Z,22.50
2018-02-27T12:18:22.928Z,16.88
2018-02-27T12:19:22.893Z,16.88
2018-02-27T12:20:22.871Z,16.88
2018-02-27T12:21:22.850Z,11.25
2018-02-27T12:22:22.818Z,11.25
2018-02-27T12:23:22.793Z,16.88
2018-02-27T12:24:22.766Z,16.88
2018-02-27T12:25:22.740Z,22.50
2018-02-27T12:26:22.717Z,16.88
2018-02-27T12:27:22.685Z,16.88
2018-02-27T12:28:22.655Z,16.88
2018-02-27T12:29:22.633Z,28.13
2018-02-27T12:30:22.657Z,22.50
2018-02-27T12:31:22.588Z,22.50
2018-02-27T12:32:22.555Z,22.50
2018-02-27T12:33:22.545Z,22.50
2018-02-27T12:34:22.497Z,33.75
2018-02-27T12:35:22.483Z,39.38
2018-02-27T12:36:22.447Z,28.13
2018-02-27T12:37:22.427Z,28.13
2018-02-27T12:38:22.396Z,22.50
2018-02-27T12:39:22.368Z,39.38
2018-02-27T12:40:22.341Z,39.38
2018-02-27T12:41:22.316Z,22.50
2018-02-27T12:42:22.299Z,22.50
2018-02-27T12:43:22.279Z,28.13
2018-02-27T12:44:22.238Z,33.75
2018-02-27T12:45:22.210Z,39.38
2018-02-27T12:46:22.189Z,28.13
2018-02-27T12:47:22.163Z,39.38
2018-02-27T12:48:22.127Z,28.13
2018-02-27T12:49:22.106Z,45.00
2018-02-27T12:50:22.084Z,50.63
2018-02-27T12:51:22.052Z,39.38
2018-02-27T12:52:22.028Z,28.13
2018-02-27T12:53:21.997Z,33.75
2018-02-27T12:54:21.977Z,33.75
2018-02-27T12:55:21.947Z,28.13
2018-02-27T12:56:21.919Z,28.13
2018-02-27T12:57:21.893Z,22.50
2018-02-27T12:58:21.867Z,39.38
2018-02-27T12:59:21.844Z,39.38
2018-02-27T13:00:21.816Z,39.38
2018-02-27T13:01:21.793Z,45.00
2018-02-27T13:02:21.764Z,50.63
2018-02-27T13:03:21.735Z,39.38
2018-02-27T13:04:21.718Z,28.13
2018-02-27T13:05:21.685Z,45.00
2018-02-27T13:06:21.655Z,22.50
2018-02-27T13:07:21.630Z,45.00
2018-02-27T13:08:21.606Z,45.00